Tiempo atmosférico en la estación meteorológica de Pola de Somiedo, Asturias (668 m.)



Fecha
DESCASC
Temp. máxima en grados centígrados (hora)
DESCASC
Temp. mínima en grados centígrados (hora)
DESCASC
Temp. media en grados centígrados
DESCASC
Racha de viento máxima en m/sg (hora)
DESCASC
Velocidad máxima media en intervalos de 10 minutos(hora)
DESCASC
Precipitaciones diarias en mm
DESCASC
Precipitaciones de 00:00 a 06:00 en mm
DESCASC
Precipitaciones de 06:00 a 12:00 en mm
DESCASC
Precipitaciones de 12:00 a 18:00 en mm
DESCASC
Precipitaciones de 18:00 a 24:00 en mm
DESCASC
22-04-2019 19.1 (15:50) 2.5 (07:20) 10.8 6.94 (15:20) 3.06 (14:40) 0 0 0 0 0
21-04-2019 17.7 (17:40) 3.4 (08:00) 10.6 6.67 (16:10) 3.06 (19:00) 0 0 0 0 0
20-04-2019 21.2 (15:40) 4.4 (07:50) 12.8 11.11 (17:30) 4.17 (17:30) 0 0 0 0 0
19-04-2019 17.1 (15:10) 8.5 (03:50) 12.8 8.06 (15:40) 4.44 (15:40) 6.6 5.2 1.2 0.2 0
18-04-2019 13 (12:30) 6.2 (00:00) 9.6 7.5 (14:20) 4.44 (14:20) 5 1.4 0 1.2 2.4
17-04-2019 21.2 (17:10) 6.6 (00:00) 13.9 12.78 (16:40) 5.56 (10:10) 4.2 0 0 0 4.2
16-04-2019 18.9 (16:30) 1.8 (00:00) 10.3 8.89 (18:10) 4.44 (17:30) 0.2 0.2 0 0 0
15-04-2019 19.3 (14:50) 7.4 (00:00) 13.3 15.83 (12:30) 5.83 (12:50) 11 0 9 1 1
14-04-2019 21 (16:00) 9.1 (00:00) 15.1 5.83 (13:40) 3.33 (14:30) 0 0 0 0 0
13-04-2019 21.1 (14:50) 3.6 (00:00) 12.4 6.94 (12:30) 3.61 (12:30) 0 0 0 0 0
12-04-2019 17.7 (17:00) -0.5 (-00:0) 8.6 6.39 (18:20) 3.33 (16:00) 0 0 0 0 0
11-04-2019 10.9 (13:30) 1 (00:00) 5.9 5.83 (14:00) 2.78 (13:50) 0.2 0.2 0 0 0
10-04-2019 9.6 (14:30) 4.7 (00:00) 7.2 8.06 (13:40) 4.17 (14:50) 11.8 3.2 5.8 1.6 1.2
09-04-2019 12.5 (17:10) 4.8 (00:00) 8.7 11.94 (14:00) 4.17 (14:00) 1.8 0 0 0 1.8
08-04-2019 13.1 (16:20) 4.6 (00:00) 8.9 11.67 (16:40) 5.28 (16:40) 1.8 0.4 1.2 0.2 0
07-04-2019 12 (14:50) -0.4 (00:00) 5.8 8.61 (21:00) 3.89 (14:40) 8.6 0 0 0.2 8.4
06-04-2019 10.8 (13:00) 1.6 (00:00) 6.2 8.33 (15:50) 3.61 (15:50) 6 0 0 3.2 2.8
05-04-2019 10.3 (14:40) 1.6 (00:00) 6 8.89 (13:30) 3.89 (13:40) 1.4 0.6 0 0 0.8
04-04-2019 10 (13:40) 0 (00:00) 5 9.17 (13:20) 3.89 (13:40) 0.8 0.4 0 0 0.4
03-04-2019 5.9 (00:10) 1.4 (00:00) 3.7 7.5 (16:10) 4.17 (13:50) 7 1 1.2 3.4 1.4
02-04-2019 14 (14:40) 0.8 (00:00) 7.4 7.78 (18:20) 3.89 (14:10) -- 0 -- 0 0
01-04-2019 16.8 (16:50) 1.3 (00:00) 9 6.94 (18:00) 3.33 (17:20) 0 0 0 0 0
31-03-2019 17.6 (15:40) 2.6 (00:00) 10.1 9.44 (17:20) 3.61 (17:30) 0.8 0.2 0 0.6 0
30-03-2019 17.3 (13:10) 3.9 (00:00) 10.6 9.17 (11:00) 4.44 (11:00) 0 0 0 0 0
29-03-2019 18.5 (14:50) 0.2 (00:00) 9.4 7.22 (14:50) 4.17 (11:50) 0 0 0 0 0
28-03-2019 17.1 (15:30) 0.8 (00:00) 9 8.61 (13:10) 4.17 (12:30) 0 0 0 0 0
27-03-2019 16.4 (14:40) -1.3 (-00:0) 7.5 8.06 (13:40) 4.17 (13:40) 0 0 0 0 0
26-03-2019 15.1 (15:30) -1 (-00:0) 7.1 6.67 (17:10) 3.61 (14:40) 0 0 0 0 0
25-03-2019 15.4 (14:40) 1.7 (00:00) 8.5 8.06 (15:10) 3.89 (14:00) 0 0 0 0 0

Gráficas

Temp. máximas Temp. mínimas Temp. medias Precipitaciones Rachas de viento máximas Velocidades máximas media en intervalos de 10 minutos

Datos horarios

Fecha y hora oficial Temperatura (ºC) Velocidad del viento (km/h) Dirección del viento Racha (km/h) Dirección de racha Precipitación (mm) Presión (hPa) Tendencia (hPa) Humedad (%)
2019-04-23 23:00:00 7.1 3 Sur 8 Oeste 0 -- -- 70
2019-04-23 22:00:00 7.8 4 Noroeste 14 Sudoeste 0 -- -- 62
2019-04-23 21:00:00 8.5 6 Sudoeste 21 Sur 0 -- -- 64
2019-04-23 20:00:00 9.8 3 Norte 21 Nordeste 0 -- -- 54
2019-04-23 19:00:00 10 11 Nordeste 22 Norte 0 -- -- 48
2019-04-23 18:00:00 10.3 5 Sur 34 Sudeste 0 -- -- 55
2019-04-23 17:00:00 8.9 12 Nordeste 38 Este 0 -- -- 65
2019-04-23 16:00:00 9.4 6 Sudoeste 49 Sur 0.6 -- -- 67
2019-04-23 15:00:00 13.4 8 Sur 36 Sur 0 -- -- 43
2019-04-23 14:00:00 12.3 9 Sur 21 Sudeste 0 -- -- 43
2019-04-23 13:00:00 10.9 9 Sudeste 29 Sudoeste 0.2 -- -- 50
2019-04-23 12:00:00 10.2 12 Sur 30 Sudoeste 0 -- -- 58
2019-04-23 11:00:00 9.5 9 Sudeste 20 Sudeste 0 -- -- 54
2019-04-23 10:00:00 8.6 3 Este 11 Nordeste 0 -- -- 65
2019-04-23 09:00:00 7.6 0 Calma 6 Sur 0 -- -- 87
2019-04-23 08:00:00 7.7 0 Calma 7 Sudeste 0 -- -- 87
2019-04-23 07:00:00 8.2 3 Sudeste 14 Sur 0 -- -- 81
2019-04-23 06:00:00 8.8 4 Sur 18 Sudoeste 0 -- -- 78
2019-04-23 05:00:00 10 9 Sudoeste 23 Sur 0 -- -- 75
2019-04-23 04:00:00 9.1 3 Nordeste 5 Sudeste 0 -- -- 93
2019-04-23 03:00:00 9.5 2 Sudoeste 14 Sudoeste 0 -- -- 90
2019-04-23 02:00:00 10.2 3 Sudoeste 23 Sur 0.2 -- -- 76
2019-04-23 01:00:00 10.5 5 Sur 15 Sudeste 0 -- -- 79
2019-04-23 00:00:00 10.9 3 Sudoeste 8 Sudoeste 0 -- -- 92
2019-04-22 23:00:00 11.6 2 Sudeste 11 Sudeste 0 -- -- 87
2019-04-22 22:00:00 12.9 4 Sur 14 Noroeste 0 -- -- 82
2019-04-22 21:00:00 13.5 6 Norte 22 Nordeste 0 -- -- 78
2019-04-22 20:00:00 14.9 8 Norte 23 Norte 0 -- -- 74
2019-04-22 19:00:00 18.3 10 Sur 19 Sur 0 -- -- 43
2019-04-22 18:00:00 18.3 9 Sur 18 Sudoeste 0 -- -- 42
2019-04-22 17:00:00 18.8 3 Norte 16 Sudeste 0 -- -- 40
2019-04-22 16:00:00 18.9 6 Sur 25 Sur 0 -- -- 42
2019-04-22 15:00:00 18.5 7 Sur 23 Sur 0 -- -- 43
2019-04-22 14:00:00 17.2 9 Sur 24 Sudoeste 0 -- -- 45
2019-04-22 13:00:00 17.8 10 Sudoeste 22 Sur 0 -- -- 50
2019-04-22 12:00:00 16 8 Sur 18 Sur 0 -- -- 53
2019-04-22 11:00:00 8.5 3 Norte 5 Norte 0 -- -- 100
2019-04-22 10:00:00 4.8 0 Calma 5 Este 0 -- -- 100
2019-04-22 09:00:00 3.7 0 Calma 5 Sudoeste 0 -- -- 100
2019-04-22 08:00:00 2.6 0 Calma 5 Este 0 -- -- 100
2019-04-22 07:00:00 2.6 2 Oeste 6 Sur 0 -- -- 99
2019-04-22 06:00:00 2.9 2 Sudoeste 6 Sudoeste 0 -- -- 98
2019-04-22 05:00:00 3.4 0 Calma 4 Sudeste 0 -- -- 97
2019-04-22 04:00:00 3.9 0 Calma 4 Sur 0 -- -- 97
2019-04-22 03:00:00 4.4 0 Calma 4 Sudoeste 0 -- -- 96
2019-04-22 02:00:00 5 0 Calma 4 Sur 0 -- -- 94
2019-04-22 01:00:00 5.9 0 Calma 3 Sur 0 -- -- 92
2019-04-22 00:00:00 7.2 0 Calma 4 Sudoeste 0 -- -- 87
2019-04-21 23:00:00 8.8 3 Sur 7 Sur 0 -- -- 81
2019-04-21 22:00:00 11.2 2 Norte 13 Noroeste 0 -- -- 68
2019-04-21 21:00:00 12.8 4 Norte 18 Noroeste 0 -- -- 61
2019-04-21 20:00:00 14.2 7 Norte 23 Noroeste 0 -- -- 57
2019-04-21 19:00:00 15.7 11 Norte 23 Norte 0 -- -- 51
2019-04-21 18:00:00 17.3 6 Norte 17 Norte 0 -- -- 54
2019-04-21 17:00:00 17.4 9 Norte 24 Norte 0 -- -- 54
2019-04-21 16:00:00 17 9 Norte 22 Noroeste 0 -- -- 54
2019-04-21 15:00:00 17.3 8 Norte 23 Norte 0 -- -- 57
2019-04-21 14:00:00 16.2 8 Norte 24 Norte 0 -- -- 56
2019-04-21 13:00:00 16 6 Norte 13 Norte 0 -- -- 61
2019-04-21 12:00:00 11.8 2 Sudeste 5 Este 0 -- -- 75
2019-04-21 11:00:00 7.8 2 Norte 4 Noroeste 0 -- -- 96
2019-04-21 10:00:00 5.1 2 Este 5 Noroeste 0 -- -- 100
2019-04-21 09:00:00 4 2 Sudeste 5 Sur 0 -- -- 100
2019-04-21 08:00:00 3.4 2 Sudeste 4 Sudoeste 0 -- -- 100
2019-04-21 07:00:00 3.6 0 Calma 6 Sudoeste 0 -- -- 99
2019-04-21 06:00:00 4 2 Sur 8 Este 0 -- -- 98
2019-04-21 05:00:00 4.5 2 Sudoeste 5 Sudeste 0 -- -- 98
2019-04-21 04:00:00 5.1 0 Calma 5 Sudoeste 0 -- -- 96
2019-04-21 03:00:00 5.8 2 Sudeste 5 Oeste 0 -- -- 94
2019-04-21 02:00:00 6.2 3 Sur 5 Oeste 0 -- -- 94
2019-04-21 01:00:00 7.1 0 Calma 5 Oeste 0 -- -- 91
2019-04-21 00:00:00 8.5 0 Calma 6 Sur 0 -- -- 86
2019-04-20 23:00:00 10.7 3 Sur 9 Noroeste 0 -- -- 78
2019-04-20 22:00:00 12.4 6 Norte 15 Norte 0 -- -- 70
2019-04-20 21:00:00 14.7 3 Norte 13 Norte 0 -- -- 62
2019-04-20 20:00:00 16.3 7 Norte 25 Norte 0 -- -- 55
2019-04-20 19:00:00 18.6 9 Noroeste 32 Noroeste 0 -- -- 49
2019-04-20 18:00:00 19.4 14 Noroeste 40 Noroeste 0 -- -- 47
2019-04-20 17:00:00 19.8 14 Noroeste 40 Norte 0 -- -- 45
2019-04-20 16:00:00 20.8 11 Norte 24 Norte 0 -- -- 47
2019-04-20 15:00:00 20.9 9 Norte 21 Norte 0 -- -- 47
2019-04-20 14:00:00 20 6 Norte 22 Norte 0 -- -- 42
2019-04-20 13:00:00 19 7 Norte 15 Norte 0 -- -- 56
2019-04-20 12:00:00 15.5 2 Norte 7 Norte 0 -- -- 73
2019-04-20 11:00:00 8.3 0 Calma 5 Este 0 -- -- 100
2019-04-20 10:00:00 5.6 0 Calma 5 Sudoeste 0 -- -- 100
2019-04-20 09:00:00 4.7 2 Nordeste 5 Sudoeste 0 -- -- 100
2019-04-20 08:00:00 4.5 3 Sudeste 5 Sur 0 -- -- 100
2019-04-20 07:00:00 4.8 0 Calma 4 Sur 0 -- -- 100
2019-04-20 06:00:00 5.4 2 Sur 5 Sudoeste 0 -- -- 100
2019-04-20 05:00:00 5.9 0 Calma 4 Sur 0 -- -- 100
2019-04-20 04:00:00 6.4 3 Sur 5 Sur 0 -- -- 100
2019-04-20 03:00:00 7.1 0 Calma 6 Sudoeste 0 -- -- 99
2019-04-20 02:00:00 8.1 0 Calma 4 Sur 0 -- -- 99
2019-04-20 01:00:00 9 0 Calma 3 Sur 0 -- -- 98
2019-04-20 00:00:00 10.2 0 Calma 4 Sur 0 -- -- 96
2019-04-19 23:00:00 11.5 2 Sur 4 Sudoeste 0 -- -- 96
2019-04-19 22:00:00 11.4 0 Calma 6 Sur 0 -- -- 96
2019-04-19 21:00:00 12.1 2 Sur 10 Noroeste 0 -- -- 90
2019-04-19 20:00:00 13.4 4 Noroeste 20 Norte 0 -- -- 86
2019-04-19 19:00:00 13.6 9 Norte 19 Norte 0 -- -- 84
2019-04-19 18:00:00 13.8 6 Norte 22 Nordeste 0 -- -- 84
2019-04-19 17:00:00 14.3 12 Norte 22 Norte 0 -- -- 84
2019-04-19 16:00:00 14.9 12 Norte 29 Norte 0 -- -- 82
2019-04-19 15:00:00 17 11 Norte 24 Norte 0.2 -- -- 78
2019-04-19 14:00:00 15.5 9 Norte 21 Norte 0 -- -- 79
2019-04-19 13:00:00 14.2 8 Norte 19 Norte 0 -- -- 81
2019-04-19 12:00:00 13.6 6 Norte 17 Norte 0 -- -- 85
2019-04-19 11:00:00 11.1 2 Norte 6 Norte 0 -- -- 95
2019-04-19 10:00:00 9.7 0 Calma 5 Sudeste 0 -- -- 100
2019-04-19 09:00:00 9 0 Calma 3 Sudoeste 0 -- -- 100
2019-04-19 08:00:00 8.8 0 Calma 4 Este 0.4 -- -- 100
2019-04-19 07:00:00 8.8 0 Calma 8 Sudeste 0.8 -- -- 100
2019-04-19 06:00:00 8.7 2 Sur 12 Norte 1.8 -- -- 100
2019-04-19 05:00:00 8.5 3 Norte 9 Noroeste 1.2 -- -- 100
2019-04-19 04:00:00 8.5 2 Nordeste 5 Noroeste 0.8 -- -- 100
2019-04-19 03:00:00 8.6 2 Sudeste 8 Norte 0.8 -- -- 100
2019-04-19 02:00:00 8.7 4 Norte 12 Noroeste 0.6 -- -- 98
2019-04-19 01:00:00 8.7 3 Noroeste 9 Noroeste 0 -- -- 99
2019-04-19 00:00:00 8.8 2 Norte 5 Nordeste 0.4 -- -- 99
2019-04-18 23:00:00 8.8 0 Calma 5 Noroeste 0 -- -- 98
2019-04-18 22:00:00 9.1 0 Calma 7 Norte 0 -- -- 97
2019-04-18 21:00:00 9.3 3 Noroeste 8 Norte 0.2 -- -- 95
2019-04-18 20:00:00 9.9 0 Calma 6 Norte 1 -- -- 95
2019-04-18 19:00:00 10.2 2 Norte 5 Norte 0.8 -- -- 94
2019-04-18 18:00:00 10.5 4 Noroeste 14 Norte 0.6 -- -- 90
2019-04-18 17:00:00 11.5 7 Norte 21 Norte 0 -- -- 81
2019-04-18 16:00:00 11.9 8 Norte 17 Norte 0.2 -- -- 82
2019-04-18 15:00:00 11.5 6 Norte 27 Norte 0.2 -- -- 88
2019-04-18 14:00:00 12.8 9 Norte 19 Nordeste 0.2 -- -- 77
2019-04-18 13:00:00 12.9 8 Norte 14 Norte 0 -- -- 73
2019-04-18 12:00:00 12.3 2 Nordeste 6 Noroeste 0 -- -- 80
2019-04-18 11:00:00 9.5 0 Calma 6 Norte 0 -- -- 95
2019-04-18 10:00:00 7.6 2 Norte 5 Sudeste 0 -- -- 100
2019-04-18 09:00:00 6.4 3 Sur 5 Sur 0 -- -- 100
2019-04-18 08:00:00 6.3 2 Sur 5 Sudeste 0 -- -- 99
2019-04-18 07:00:00 7.3 0 Calma 5 Sudoeste 0 -- -- 97
2019-04-18 06:00:00 8.7 3 Sudoeste 6 Oeste 0.2 -- -- 99
2019-04-18 05:00:00 9 2 Sudoeste 4 Sudoeste 0.8 -- -- 98
2019-04-18 04:00:00 9.1 0 Calma 6 Sudeste 0.2 -- -- 98
2019-04-18 03:00:00 9.2 2 Noroeste 10 Norte 0.2 -- -- 96
2019-04-18 02:00:00 9.2 4 Norte 9 Norte 0 -- -- 97
2019-04-18 01:00:00 9.5 0 Calma 8 Norte 0 -- -- 98
2019-04-18 00:00:00 10.1 2 Sudeste 5 Norte 1.6 -- -- 97
2019-04-17 23:00:00 10.9 2 Nordeste 7 Noroeste 1 -- -- 92
2019-04-17 22:00:00 12.1 0 Calma 17 Sur 1.6 -- -- 89
2019-04-17 21:00:00 15.6 9 Sudoeste 27 Sur 0 -- -- 61
2019-04-17 20:00:00 18.1 12 Sur 31 Sudoeste 0 -- -- 47
2019-04-17 19:00:00 19 7 Sur 30 Sudoeste 0 -- -- 43
2019-04-17 18:00:00 19.7 13 Sudoeste 46 Sur 0 -- -- 43
2019-04-17 17:00:00 21.1 14 Sudoeste 46 Sur 0 -- -- 39
2019-04-17 16:00:00 20.6 19 Sur 43 Sur 0 -- -- 39
2019-04-17 15:00:00 19.9 14 Sur 41 Sudeste 0 -- -- 42
2019-04-17 14:00:00 19.5 10 Sudoeste 32 Sur 0 -- -- 43
2019-04-17 13:00:00 18.5 12 Sur 38 Sur 0 -- -- 47
2019-04-17 12:00:00 18.2 12 Sur 42 Sudeste 0 -- -- 47
2019-04-17 11:00:00 16 19 Sur 45 Sudoeste 0 -- -- 49
2019-04-17 10:00:00 15.2 15 Sur 44 Sur 0 -- -- 50
2019-04-17 09:00:00 14.4 19 Sur 36 Sur 0 -- -- 53
2019-04-17 08:00:00 14 10 Sur 28 Sur 0 -- -- 52
2019-04-17 07:00:00 14.5 8 Sur 37 Sur 0 -- -- 50
2019-04-17 06:00:00 14.9 13 Sur 35 Sudoeste 0 -- -- 49
2019-04-17 05:00:00 8.9 5 Norte 14 Norte 0 -- -- 76
2019-04-17 04:00:00 7.1 3 Noroeste 9 Sudeste 0 -- -- 88
2019-04-17 03:00:00 6.9 3 Nordeste 9 Norte 0 -- -- 92
2019-04-17 02:00:00 7.2 2 Sudoeste 10 Este 0 -- -- 92
2019-04-17 01:00:00 6.6 3 Oeste 9 Noroeste 0 -- -- 93
2019-04-17 00:00:00 7 2 Sudoeste 5 Sudeste 0 -- -- 90
2019-04-16 23:00:00 8 0 Calma 5 Sudoeste 0 -- -- 84
2019-04-16 22:00:00 10 0 Calma 5 Sudoeste 0 -- -- 75
2019-04-16 21:00:00 13.6 2 Norte 16 Sudoeste 0 -- -- 60
2019-04-16 20:00:00 16.5 7 Sur 27 Sudoeste 0 -- -- 42
2019-04-16 19:00:00 17.6 12 Sur 32 Sur 0 -- -- 38
2019-04-16 18:00:00 18.6 13 Sur 31 Sudoeste 0 -- -- 41
2019-04-16 17:00:00 18.3 15 Sur 31 Sudoeste 0 -- -- 37
2019-04-16 16:00:00 18.3 9 Sur 27 Sudoeste 0 -- -- 35
2019-04-16 15:00:00 18.3 13 Sur 31 Sudoeste 0 -- -- 43
2019-04-16 14:00:00 17.6 10 Sur 27 Sur 0 -- -- 44
2019-04-16 13:00:00 15.3 12 Sur 27 Sudoeste 0 -- -- 43
2019-04-16 12:00:00 14.7 11 Sur 26 Sudoeste 0 -- -- 45
2019-04-16 11:00:00 11.4 11 Sur 31 Sudeste 0 -- -- 55
2019-04-16 10:00:00 9 11 Sur 31 Sudeste 0 -- -- 64
2019-04-16 09:00:00 2.3 4 Oeste 8 Noroeste 0 -- -- 100
2019-04-16 08:00:00 1.8 3 Noroeste 10 Este 0 -- -- 100
2019-04-16 07:00:00 2 0 Calma 5 Sur 0 -- -- 100
2019-04-16 06:00:00 2.4 2 Sur 5 Sudoeste 0 -- -- 100
2019-04-16 05:00:00 2.8 0 Calma 5 Sur 0 -- -- 99
2019-04-16 04:00:00 3.2 2 Sur 4 Sudoeste 0 -- -- 99
2019-04-16 03:00:00 3.9 2 Sur 3 Sur 0 -- -- 98
2019-04-16 02:00:00 4.8 0 Calma 4 Sur 0.2 -- -- 97
2019-04-16 01:00:00 6 0 Calma 5 Oeste 0 -- -- 96
2019-04-16 00:00:00 7.4 3 Sudoeste 6 Oeste 0 -- -- 96
2019-04-15 23:00:00 8.1 0 Calma 5 Oeste 0 -- -- 96
2019-04-15 22:00:00 8.4 2 Noroeste 13 Nordeste 0 -- -- 91
2019-04-15 21:00:00 10.2 8 Nordeste 30 Nordeste 0 -- -- 77
2019-04-15 20:00:00 11.6 4 Sur 26 Sudeste 0.4 -- -- 75
2019-04-15 19:00:00 12.7 2 Noroeste 23 Sudeste 0.6 -- -- 78
2019-04-15 18:00:00 16.3 5 Noroeste 25 Sudeste 0 -- -- 53
2019-04-15 17:00:00 15.2 12 Sudeste 37 Sur 0.4 -- -- 54
2019-04-15 16:00:00 12.6 8 Norte 30 Sur 0.6 -- -- 77
2019-04-15 15:00:00 19.1 9 Sur 37 Sudeste 0 -- -- 50
2019-04-15 14:00:00 18.5 12 Sudeste 42 Sudeste 0 -- -- 52
2019-04-15 13:00:00 18 16 Sudeste 57 Sudeste 0 -- -- 60
2019-04-15 12:00:00 14.5 2 Sudeste 5 Sudeste 4.4 -- -- 95
2019-04-15 11:00:00 14.1 2 Oeste 22 Sudeste 3.6 -- -- 93
2019-04-15 10:00:00 15.1 4 Norte 33 Sudoeste 1 -- -- 88
2019-04-15 09:00:00 16.9 16 Sur 36 Sudoeste 0 -- -- 64
2019-04-15 08:00:00 16.6 11 Sur 35 Sudoeste 0 -- -- 64
2019-04-15 07:00:00 16.4 9 Sur 24 Sur 0 -- -- 66
2019-04-15 06:00:00 16 7 Sur 25 Sur 0 -- -- 69
2019-04-15 05:00:00 16 13 Sur 25 Sudoeste 0 -- -- 68
2019-04-15 04:00:00 14.9 8 Sur 23 Sudoeste 0 -- -- 72
2019-04-15 03:00:00 11.5 4 Sur 7 Sur 0 -- -- 96
2019-04-15 02:00:00 11.6 3 Nordeste 6 Oeste 0 -- -- 95
2019-04-15 01:00:00 12.4 0 Calma 6 Sudeste 0 -- -- 92
2019-04-15 00:00:00 13.3 2 Sur 7 Sur 0 -- -- 88
2019-04-14 23:00:00 15 0 Calma 6 Oeste 0 -- -- 84
2019-04-14 22:00:00 16.4 2 Nordeste 10 Noroeste 0 -- -- 79
2019-04-14 21:00:00 17 6 Norte 15 Norte 0 -- -- 76
2019-04-14 20:00:00 18.4 5 Norte 13 Norte 0 -- -- 72
2019-04-14 19:00:00 19.3 6 Norte 14 Norte 0 -- -- 69
2019-04-14 18:00:00 19.5 6 Norte 18 Norte 0 -- -- 65
2019-04-14 17:00:00 19.5 10 Norte 19 Norte 0 -- -- 67
2019-04-14 16:00:00 21 8 Norte 17 Nordeste 0 -- -- 61
2019-04-14 15:00:00 19.4 8 Norte 19 Norte 0 -- -- 68
2019-04-14 14:00:00 19.4 9 Norte 21 Norte 0 -- -- 65
2019-04-14 13:00:00 20.3 6 Norte 12 Norte 0 -- -- 56
2019-04-14 12:00:00 18.8 6 Norte 10 Norte 0 -- -- 64
2019-04-14 11:00:00 13.8 0 Calma 3 Norte 0 -- -- 84
2019-04-14 10:00:00 12.4 0 Calma 4 Sur 0 -- -- 88
2019-04-14 09:00:00 10.8 0 Calma 4 Sudoeste 0 -- -- 93
2019-04-14 08:00:00 10.2 3 Sudoeste 5 Sudoeste 0 -- -- 93
2019-04-14 07:00:00 10 3 Sudoeste 7 Oeste 0 -- -- 94
2019-04-14 06:00:00 9.4 2 Sur 5 Sur 0 -- -- 95
2019-04-14 05:00:00 9.2 0 Calma 4 Sur 0 -- -- 94
2019-04-14 04:00:00 10.1 2 Sudoeste 6 Sudeste 0 -- -- 92
2019-04-14 03:00:00 10.9 0 Calma 7 Oeste 0 -- -- 93
2019-04-14 02:00:00 11.2 0 Calma 8 Noroeste 0 -- -- 92
2019-04-14 01:00:00 11.5 2 Sudoeste 4 Oeste 0 -- -- 93
2019-04-14 00:00:00 11.8 0 Calma 3 Sudoeste 0 -- -- 92
2019-04-13 23:00:00 12.4 0 Calma 4 Oeste 0 -- -- 90
2019-04-13 22:00:00 13.6 0 Calma 6 Sur 0 -- -- 81
2019-04-13 21:00:00 15.1 2 Sur 16 Nordeste 0 -- -- 67
2019-04-13 20:00:00 16.1 5 Norte 17 Norte 0 -- -- 66
2019-04-13 19:00:00 16.9 10 Norte 18 Norte 0 -- -- 65
2019-04-13 18:00:00 18.3 9 Norte 21 Norte 0 -- -- 58
2019-04-13 17:00:00 20 9 Sudeste 21 Sudeste 0 -- -- 34
2019-04-13 16:00:00 20.1 7 Sur 18 Sur 0 -- -- 33
2019-04-13 15:00:00 21 7 Sur 21 Sur 0 -- -- 32
2019-04-13 14:00:00 19.9 11 Sur 21 Sur 0 -- -- 35
2019-04-13 13:00:00 18.6 9 Sur 25 Sur 0 -- -- 35
2019-04-13 12:00:00 15.3 4 Nordeste 6 Norte 0 -- -- 49
2019-04-13 11:00:00 5.3 0 Calma 3 Norte 0 -- -- 100
2019-04-13 10:00:00 3.8 0 Calma 5 Sur 0 -- -- 99
2019-04-13 09:00:00 3.6 2 Sur 4 Sur 0 -- -- 98
2019-04-13 08:00:00 4 2 Sur 5 Sudoeste 0 -- -- 99
2019-04-13 07:00:00 4 2 Sur 5 Sudeste 0 -- -- 99
2019-04-13 06:00:00 3.7 0 Calma 6 Sur 0 -- -- 98
2019-04-13 05:00:00 4.8 0 Calma 3 Sudoeste 0 -- -- 97
2019-04-13 04:00:00 5.2 0 Calma 4 Sudeste 0 -- -- 97
2019-04-13 03:00:00 5.4 0 Calma 5 Sudoeste 0 -- -- 97
2019-04-13 02:00:00 5.2 2 Sur 4 Sur 0 -- -- 97
2019-04-13 01:00:00 5.1 0 Calma 5 Sur 0 -- -- 96
2019-04-13 00:00:00 5.8 3 Sur 4 Sur 0 -- -- 93
2019-04-12 23:00:00 7.2 0 Calma 3 Sudoeste 0 -- -- 88
2019-04-12 22:00:00 9 0 Calma 9 Sudoeste 0 -- -- 82
2019-04-12 21:00:00 11.4 4 Noroeste 15 Nordeste 0 -- -- 75
2019-04-12 20:00:00 12.8 7 Norte 22 Norte 0 -- -- 70
2019-04-12 19:00:00 14.7 10 Norte 23 Norte 0 -- -- 59
2019-04-12 18:00:00 17.1 11 Norte 20 Norte 0 -- -- 55
2019-04-12 17:00:00 17.7 9 Norte 21 Norte 0 -- -- 53
2019-04-12 16:00:00 17.1 12 Norte 21 Nordeste 0 -- -- 54
2019-04-12 15:00:00 16.9 9 Norte 19 Norte 0 -- -- 53
2019-04-12 14:00:00 15.9 8 Norte 15 Norte 0 -- -- 46
2019-04-12 13:00:00 14.4 9 Norte 18 Nordeste 0 -- -- 50
2019-04-12 12:00:00 9.9 0 Calma 5 Nordeste 0 -- -- 59
2019-04-12 11:00:00 1 2 Norte 4 Sur 0 -- -- 100
2019-04-12 10:00:00 0 0 Calma 3 Sur 0 -- -- 100
2019-04-12 09:00:00 -0.4 0 Calma 5 Sur 0 -- -- 100
2019-04-12 08:00:00 -0.4 0 Calma 5 Sur 0 -- -- 100
2019-04-12 07:00:00 -0.1 2 Sur 4 Sur 0 -- -- 100
2019-04-12 06:00:00 0.3 2 Sur 4 Sur 0 -- -- 99
2019-04-12 05:00:00 0.8 2 Sur 5 Sur 0 -- -- 99
2019-04-12 04:00:00 1.4 0 Calma 4 Sur 0 -- -- 98
2019-04-12 03:00:00 2.1 2 Sur 3 Sudoeste 0 -- -- 97
2019-04-12 02:00:00 3.5 0 Calma 5 Sur 0 -- -- 96
2019-04-12 01:00:00 4.5 0 Calma 4 Sudoeste 0 -- -- 97
2019-04-12 00:00:00 5.5 0 Calma 3 Sudoeste 0 -- -- 92
2019-04-11 23:00:00 7.1 0 Calma 4 Sur 0 -- -- 93
2019-04-11 22:00:00 7.3 0 Calma 9 Nordeste 0 -- -- 90
2019-04-11 21:00:00 7.7 3 Norte 10 Norte 0 -- -- 86
2019-04-11 20:00:00 9 5 Norte 14 Norte 0 -- -- 79
2019-04-11 19:00:00 9.8 8 Norte 17 Norte 0 -- -- 78
2019-04-11 18:00:00 9.7 7 Norte 16 Norte 0 -- -- 75
2019-04-11 17:00:00 10.4 5 Norte 11 Nordeste 0 -- -- 69
2019-04-11 16:00:00 10.4 4 Norte 14 Norte 0 -- -- 66
2019-04-11 15:00:00 10.2 8 Norte 19 Norte 0 -- -- 69
2019-04-11 14:00:00 10.1 9 Norte 21 Norte 0 -- -- 66
2019-04-11 13:00:00 10.2 8 Norte 16 Norte 0 -- -- 64
2019-04-11 12:00:00 8 5 Norte 12 Norte 0 -- -- 86
2019-04-11 11:00:00 2.5 2 Norte 4 Norte 0 -- -- 100
2019-04-11 10:00:00 1.4 2 Sur 4 Sur 0 -- -- 100
2019-04-11 09:00:00 1 0 Calma 5 Sudoeste 0 -- -- 100
2019-04-11 08:00:00 1.2 0 Calma 4 Sur 0 -- -- 99
2019-04-11 07:00:00 2 0 Calma 4 Sudoeste 0 -- -- 98
2019-04-11 06:00:00 3.4 3 Sur 4 Sur 0 -- -- 96
2019-04-11 05:00:00 4.3 0 Calma 5 Sur 0 -- -- 98
2019-04-11 04:00:00 4.6 0 Calma 3 Oeste 0 -- -- 99
2019-04-11 03:00:00 5.7 0 Calma 3 Sudoeste 0.2 -- -- 100
2019-04-11 02:00:00 6 2 Sur 4 Sudeste 0 -- -- 100
2019-04-11 01:00:00 6.1 0 Calma 4 Sur 0 -- -- 100
2019-04-11 00:00:00 6 0 Calma 2 Sur 0.2 -- -- 99
2019-04-10 23:00:00 6.2 0 Calma 3 Oeste 0 -- -- 99
2019-04-10 22:00:00 6.5 0 Calma 3 Noroeste 0.2 -- -- 97
2019-04-10 21:00:00 7 0 Calma 6 Noroeste 0.4 -- -- 94
2019-04-10 20:00:00 7.8 2 Norte 9 Norte 0.2 -- -- 90
2019-04-10 19:00:00 7.9 7 Norte 19 Norte 0.2 -- -- 87
2019-04-10 18:00:00 8.3 12 Norte 26 Norte 0 -- -- 84
2019-04-10 17:00:00 8.6 9 Norte 27 Nordeste 0.2 -- -- 87
2019-04-10 16:00:00 8.7 9 Norte 22 Nordeste 0 -- -- 84
2019-04-10 15:00:00 8.4 10 Norte 28 Norte 0.4 -- -- 89
2019-04-10 14:00:00 8.3 13 Norte 29 Norte 0.4 -- -- 89
2019-04-10 13:00:00 8.1 10 Norte 22 Norte 0.6 -- -- 90
2019-04-10 12:00:00 7.4 6 Norte 15 Noroeste 0.8 -- -- 93
2019-04-10 11:00:00 6.5 5 Norte 14 Norte 1 -- -- 99
2019-04-10 10:00:00 5.8 4 Norte 7 Norte 1.2 -- -- 100
2019-04-10 09:00:00 5 0 Calma 5 Sudoeste 0.8 -- -- 100
2019-04-10 08:00:00 4.7 0 Calma 9 Este 1.4 -- -- 100
2019-04-10 07:00:00 4.7 4 Oeste 8 Oeste 0.6 -- -- 99
2019-04-10 06:00:00 4.7 2 Sudeste 7 Sudoeste 1 -- -- 98
2019-04-10 05:00:00 4.9 5 Sur 11 Sudeste 0.4 -- -- 95
2019-04-10 04:00:00 5.5 3 Sur 28 Nordeste 0.8 -- -- 95
2019-04-10 03:00:00 5.6 4 Sudoeste 12 Este 0.4 -- -- 96
2019-04-10 02:00:00 5.6 3 Sudeste 10 Sudeste 0.2 -- -- 97
2019-04-10 01:00:00 5.7 3 Norte 6 Sudoeste 0.4 -- -- 97
2019-04-10 00:00:00 6 5 Sur 10 Oeste 0.2 -- -- 96
2019-04-09 23:00:00 6.1 6 Sur 10 Oeste 0.2 -- -- 95
2019-04-09 22:00:00 6.7 0 Calma 8 Sudeste 1 -- -- 93
2019-04-09 21:00:00 8 6 Sur 12 Sur 0.4 -- -- 78
2019-04-09 20:00:00 9.5 3 Sur 24 Sur 0 -- -- 67
2019-04-09 19:00:00 10.6 7 Sudoeste 24 Sur 0 -- -- 64
2019-04-09 18:00:00 12.3 6 Sur 27 Sudoeste 0 -- -- 51
2019-04-09 17:00:00 12.3 5 Sudoeste 24 Noroeste 0 -- -- 50
2019-04-09 16:00:00 10.7 8 Norte 32 Sudeste 0 -- -- 59
2019-04-09 15:00:00 11.9 8 Sur 28 Sudeste 0 -- -- 49
2019-04-09 14:00:00 11 15 Este 43 Este 0 -- -- 49
2019-04-09 13:00:00 10.8 3 Sudoeste 16 Norte 0 -- -- 53
2019-04-09 12:00:00 9.7 7 Norte 17 Nordeste 0 -- -- 49
2019-04-09 11:00:00 8.6 10 Sur 23 Sur 0 -- -- 67
2019-04-09 10:00:00 7.9 10 Sudoeste 20 Sudoeste 0 -- -- 70
2019-04-09 09:00:00 6.3 4 Sur 11 Sudoeste 0 -- -- 82
2019-04-09 08:00:00 6.1 4 Sur 9 Sur 0 -- -- 80
2019-04-09 07:00:00 5.4 2 Sudoeste 8 Oeste 0 -- -- 85
2019-04-09 06:00:00 5.8 2 Oeste 9 Sur 0 -- -- 85
2019-04-09 05:00:00 6.6 4 Sur 14 Sudeste 0 -- -- 77
2019-04-09 04:00:00 6.9 4 Sur 14 Sur 0 -- -- 74
2019-04-09 03:00:00 7.2 4 Sur 15 Sudoeste 0 -- -- 75
2019-04-09 02:00:00 8.6 9 Sur 35 Sudeste 0 -- -- 64
2019-04-09 01:00:00 8 7 Sur 25 Sudeste 0 -- -- 66
2019-04-09 00:00:00 4.8 3 Norte 9 Noroeste 0 -- -- 91
2019-04-08 23:00:00 4.9 2 Norte 5 Sudoeste 0 -- -- 90
2019-04-08 22:00:00 6 0 Calma 6 Sur 0 -- -- 85
2019-04-08 21:00:00 8 3 Sudeste 23 Sur 0 -- -- 73
2019-04-08 20:00:00 8.8 4 Sur 8 Sur 0 -- -- 79
2019-04-08 19:00:00 9.5 6 Sur 37 Sur 0 -- -- 72
2019-04-08 18:00:00 12.5 5 Sur 30 Sur 0 -- -- 51
2019-04-08 17:00:00 12.1 12 Sur 42 Sur 0 -- -- 60
2019-04-08 16:00:00 12.7 9 Sur 23 Sudoeste 0.2 -- -- 48
2019-04-08 15:00:00 12.3 11 Sur 37 Sur 0 -- -- 53
2019-04-08 14:00:00 11.9 5 Sudoeste 32 Sur 0 -- -- 53
2019-04-08 13:00:00 10.6 3 Noroeste 26 Sur 0 -- -- 59
2019-04-08 12:00:00 9.9 7 Sudoeste 20 Sudoeste 0 -- -- 63
2019-04-08 11:00:00 5.9 4 Sur 13 Sur 0 -- -- 100
2019-04-08 10:00:00 5.4 0 Calma 5 Oeste 0 -- -- 100
2019-04-08 09:00:00 6 4 Sudeste 8 Sudeste 0.2 -- -- 100
2019-04-08 08:00:00 5.7 0 Calma 6 Sudoeste 0.8 -- -- 100
2019-04-08 07:00:00 5.7 2 Norte 7 Este 0.2 -- -- 99
2019-04-08 06:00:00 5.7 3 Sur 5 Sudeste 0.2 -- -- 98
2019-04-08 05:00:00 5.5 2 Sur 6 Sudoeste 0 -- -- 95
2019-04-08 04:00:00 6.6 3 Norte 13 Sudoeste 0 -- -- 86
2019-04-08 03:00:00 7 3 Sudeste 11 Sudoeste 0 -- -- 84
2019-04-08 02:00:00 6.5 3 Noroeste 20 Sur 0 -- -- 88
2019-04-08 01:00:00 7.4 7 Sur 26 Sudoeste 0.2 -- -- 79
2019-04-08 00:00:00 6.6 10 Sur 25 Sur 0.6 -- -- 84
2019-04-07 23:00:00 6.4 4 Sur 21 Sudoeste 1.4 -- -- 87
2019-04-07 22:00:00 6.4 4 Norte 21 Sudoeste 1.2 -- -- 92
2019-04-07 21:00:00 7.1 6 Sudeste 31 Sudoeste 1.6 -- -- 84
2019-04-07 20:00:00 6.8 9 Sur 20 Sur 2.4 -- -- 82
2019-04-07 19:00:00 6.8 3 Norte 28 Sudoeste 1.2 -- -- 89
2019-04-07 18:00:00 8.3 12 Sur 26 Sudoeste 0.2 -- -- 72
2019-04-07 17:00:00 10.8 11 Sur 31 Sudoeste 0 -- -- 54
2019-04-07 16:00:00 11.6 10 Sur 22 Sudeste 0 -- -- 53
2019-04-07 15:00:00 11.5 10 Sur 25 Sur 0 -- -- 40
2019-04-07 14:00:00 10.7 8 Sur 25 Sudoeste 0 -- -- 51
2019-04-07 13:00:00 9.7 12 Sur 24 Sudeste 0 -- -- 51
2019-04-07 12:00:00 8.7 12 Sur 22 Sudoeste 0 -- -- 57
2019-04-07 11:00:00 0.5 0 Calma 4 Sudoeste 0 -- -- 99
2019-04-07 10:00:00 -0.2 0 Calma 5 Sudoeste 0 -- -- 98
2019-04-07 09:00:00 -0.4 0 Calma 6 Oeste 0 -- -- 97
2019-04-07 08:00:00 -0.2 2 Norte 8 Sudoeste 0 -- -- 96
2019-04-07 07:00:00 0.6 2 Norte 7 Sudeste 0 -- -- 94
2019-04-07 06:00:00 1.4 3 Sudoeste 9 Sudeste 0 -- -- 93
2019-04-07 05:00:00 3.1 4 Sudoeste 16 Nordeste 0 -- -- 88
2019-04-07 04:00:00 4.3 5 Nordeste 12 Nordeste 0 -- -- 82
2019-04-07 03:00:00 3.6 2 Sur 12 Norte 0 -- -- 93
2019-04-07 02:00:00 3.8 6 Sudeste 18 Nordeste 0 -- -- 87
2019-04-07 01:00:00 3.8 5 Sur 13 Nordeste 0 -- -- 92
2019-04-07 00:00:00 4.7 5 Sur 20 Este 0 -- -- 81
2019-04-06 23:00:00 2.4 3 Norte 14 Norte 0 -- -- 97
2019-04-06 22:00:00 3.2 5 Sur 21 Nordeste 0.2 -- -- 94
2019-04-06 21:00:00 4.2 4 Norte 14 Nordeste 0.2 -- -- 88
2019-04-06 20:00:00 4.2 3 Nordeste 26 Sudeste 1.8 -- -- 91
2019-04-06 19:00:00 5.2 3 Norte 9 Este 0.6 -- -- 87
2019-04-06 18:00:00 5.2 5 Este 23 Nordeste 1.8 -- -- 85
2019-04-06 17:00:00 6.2 6 Sudeste 12 Sur 0.2 -- -- 83
2019-04-06 16:00:00 5.6 5 Nordeste 30 Nordeste 1 -- -- 82
2019-04-06 15:00:00 7.6 3 Nordeste 22 Sur 0.2 -- -- 69
2019-04-06 14:00:00 9.2 11 Sur 28 Sur 0 -- -- 58
2019-04-06 13:00:00 10.8 9 Sur 24 Sur 0 -- -- 52
2019-04-06 12:00:00 9 10 Sur 21 Sur 0 -- -- 56
2019-04-06 11:00:00 7.2 10 Sur 22 Sur 0 -- -- 62
2019-04-06 10:00:00 6.4 4 Sur 21 Sur 0 -- -- 65
2019-04-06 09:00:00 5.3 6 Sudeste 21 Sudoeste 0 -- -- 70
2019-04-06 08:00:00 2.8 3 Norte 8 Sudoeste 0 -- -- 87
2019-04-06 07:00:00 3.1 0 Calma 5 Sudoeste 0 -- -- 89
2019-04-06 06:00:00 3.5 4 Norte 8 Sur 0 -- -- 85
2019-04-06 05:00:00 4.6 8 Sur 23 Sur 0 -- -- 76
2019-04-06 04:00:00 3.4 4 Sur 14 Sudeste 0 -- -- 81
2019-04-06 03:00:00 2.1 0 Calma 4 Sudeste 0 -- -- 100
2019-04-06 02:00:00 1.9 2 Sudoeste 5 Sudeste 0 -- -- 99
2019-04-06 01:00:00 1.7 3 Sur 9 Este 0 -- -- 99
2019-04-06 00:00:00 1.6 3 Sur 6 Oeste 0 -- -- 97
2019-04-05 23:00:00 2.5 2 Sudoeste 8 Sudoeste 0 -- -- 96
2019-04-05 22:00:00 3.1 0 Calma 5 Oeste 0 -- -- 93
2019-04-05 21:00:00 4.2 0 Calma 9 Sur 0.2 -- -- 92
2019-04-05 20:00:00 5.3 12 Este 23 Nordeste 0.6 -- -- 77
2019-04-05 19:00:00 8 4 Nordeste 10 Noroeste 0 -- -- 63
2019-04-05 18:00:00 7.7 5 Noroeste 24 Oeste 0 -- -- 64
2019-04-05 17:00:00 9.2 9 Sudeste 26 Sudeste 0 -- -- 47
2019-04-05 16:00:00 9.4 10 Sur 24 Sur 0 -- -- 49
2019-04-05 15:00:00 9.4 10 Sur 32 Sudoeste 0 -- -- 48
2019-04-05 14:00:00 9.6 12 Sur 32 Sudoeste 0 -- -- 46
2019-04-05 13:00:00 8.6 12 Sur 28 Sur 0 -- -- 53
2019-04-05 12:00:00 8.3 14 Sur 25 Sudeste 0 -- -- 52
2019-04-05 11:00:00 5.2 8 Sur 31 Sudeste 0 -- -- 57
2019-04-05 10:00:00 5 12 Sudeste 29 Sudeste 0 -- -- 58
2019-04-05 09:00:00 3.6 5 Sur 23 Sur 0 -- -- 72
2019-04-05 08:00:00 2 0 Calma 6 Norte 0 -- -- 94
2019-04-05 07:00:00 2.9 2 Sur 5 Sudeste 0 -- -- 95
2019-04-05 06:00:00 3.1 4 Sudoeste 6 Sudoeste 0 -- -- 94
2019-04-05 05:00:00 3.9 0 Calma 6 Sudeste 0 -- -- 87
2019-04-05 04:00:00 5.4 5 Sur 21 Sur 0 -- -- 78
2019-04-05 03:00:00 5.7 9 Sur 24 Sudeste 0 -- -- 73
2019-04-05 02:00:00 5.4 8 Sur 24 Sur 0.2 -- -- 76
2019-04-05 01:00:00 5.4 7 Sudoeste 24 Sur 0.4 -- -- 83
2019-04-05 00:00:00 5.4 3 Nordeste 17 Sudoeste 0.2 -- -- 85
2019-04-04 23:00:00 5.4 2 Noroeste 9 Sur 0.2 -- -- 87
2019-04-04 22:00:00 6.2 3 Nordeste 20 Sur 0 -- -- 79
2019-04-04 21:00:00 6.9 3 Sur 27 Sudeste 0 -- -- 68
2019-04-04 20:00:00 7.6 11 Sur 29 Sur 0 -- -- 64
2019-04-04 19:00:00 7.8 9 Sur 32 Sudoeste 0 -- -- 64
2019-04-04 18:00:00 8.2 12 Sur 31 Sudeste 0 -- -- 63
2019-04-04 17:00:00 8 11 Sur 27 Este 0 -- -- 63
2019-04-04 16:00:00 7.6 5 Sur 19 Sur 0 -- -- 68
2019-04-04 15:00:00 8.6 7 Sudoeste 25 Sur 0 -- -- 55
2019-04-04 14:00:00 9.3 8 Sudoeste 33 Sur 0 -- -- 52
2019-04-04 13:00:00 9.7 12 Sudoeste 29 Sur 0 -- -- 49
2019-04-04 12:00:00 8.6 8 Sur 18 Sur 0 -- -- 52
2019-04-04 11:00:00 3.8 2 Norte 8 Sur 0 -- -- 91
2019-04-04 10:00:00 1.4 6 Sudoeste 13 Oeste 0 -- -- 98
2019-04-04 09:00:00 0.2 3 Sudeste 6 Sudeste 0 -- -- 99
2019-04-04 08:00:00 0.2 0 Calma 7 Oeste 0 -- -- 98
2019-04-04 07:00:00 0.6 4 Sur 16 Nordeste 0 -- -- 95
2019-04-04 06:00:00 2.3 12 Nordeste 23 Este 0 -- -- 80
2019-04-04 05:00:00 1.4 0 Calma 8 Sudoeste 0.2 -- -- 99
2019-04-04 04:00:00 1.4 3 Sudoeste 6 Sudeste 0 -- -- 100
2019-04-04 03:00:00 1.3 3 Norte 9 Noroeste 0 -- -- 100
2019-04-04 02:00:00 1.1 2 Sur 5 Norte 0 -- -- 99
2019-04-04 01:00:00 1.3 3 Sur 7 Noroeste 0.2 -- -- 98
2019-04-04 00:00:00 1.5 2 Sudoeste 4 Norte 0.2 -- -- 99
2019-04-03 23:00:00 1.5 4 Sudoeste 6 Sur 0.2 -- -- 97
2019-04-03 22:00:00 1.8 0 Calma 9 Sudoeste 0.2 -- -- 95
2019-04-03 21:00:00 1.5 3 Norte 21 Norte 0.8 -- -- 96
2019-04-03 20:00:00 4.1 6 Norte 19 Norte 0 -- -- 73
2019-04-03 19:00:00 4.7 7 Norte 20 Nordeste 0 -- -- 75
2019-04-03 18:00:00 3.6 8 Norte 24 Norte 0.6 -- -- 90
2019-04-03 17:00:00 4.1 7 Noroeste 27 Norte 0.6 -- -- 88
2019-04-03 16:00:00 5.3 4 Sudeste 14 Norte 0 -- -- 72
2019-04-03 15:00:00 3.4 6 Norte 23 Noroeste 0.4 -- -- 89
2019-04-03 14:00:00 2 12 Norte 26 Norte 1.6 -- -- 91
2019-04-03 13:00:00 5 6 Norte 16 Este 0.2 -- -- 89
2019-04-03 12:00:00 3.7 5 Norte 26 Este 0.2 -- -- 90
2019-04-03 11:00:00 3.6 5 Norte 15 Norte 0.2 -- -- 93
2019-04-03 10:00:00 3.3 7 Norte 15 Norte 0 -- -- 94
2019-04-03 09:00:00 3 5 Noroeste 14 Norte 0.6 -- -- 96
2019-04-03 08:00:00 3.4 4 Norte 12 Norte 0.2 -- -- 95
2019-04-03 07:00:00 3.7 5 Norte 12 Norte 0 -- -- 95
2019-04-03 06:00:00 3.8 5 Noroeste 15 Nordeste 0.2 -- -- 94
2019-04-03 05:00:00 4.1 3 Norte 7 Norte 0 -- -- 95
2019-04-03 04:00:00 4.4 0 Calma 4 Oeste 0 -- -- 96
2019-04-03 03:00:00 4.5 2 Norte 8 Noroeste 0.2 -- -- 96
2019-04-03 02:00:00 4.8 4 Norte 14 Norte 0.2 -- -- 97
2019-04-03 01:00:00 5.2 6 Norte 16 Norte 0.4 -- -- 94
2019-04-03 00:00:00 5.8 6 Noroeste 15 Norte 0 -- -- 91
2019-04-02 23:00:00 6.4 9 Norte 18 Norte 0 -- -- 87
2019-04-02 22:00:00 6.4 5 Noroeste 17 Norte 0 -- -- 91
2019-04-02 21:00:00 6.6 8 Norte 17 Nordeste 0 -- -- 93
2019-04-02 20:00:00 7.8 10 Norte 23 Norte 0 -- -- 86
2019-04-02 19:00:00 9.4 13 Norte 28 Norte 0 -- -- 79
2019-04-02 18:00:00 11.4 11 Norte 23 Norte 0 -- -- 67
2019-04-02 17:00:00 12.7 10 Norte 26 Norte 0 -- -- 61
2019-04-02 16:00:00 13.2 12 Norte 26 Norte 0 -- -- 62
2019-04-02 15:00:00 13.3 13 Norte 28 Norte 0 -- -- 64
2019-04-02 14:00:00 13.7 14 Norte 24 Norte 0 -- -- 61
2019-04-02 13:00:00 12.3 11 Norte 19 Norte 0 -- -- 69
2019-04-02 12:00:00 9.6 3 Sudeste 5 Sudeste -- -- -- 74
2019-04-02 11:00:00 3.1 0 Calma 4 Sur -- -- -- 98
2019-04-02 10:00:00 1.1 0 Calma 3 Norte 0 -- -- 99
2019-04-02 09:00:00 0.8 0 Calma 4 Sur 0 -- -- 98
2019-04-02 08:00:00 1.2 0 Calma 4 Sur 0 -- -- 97
2019-04-02 07:00:00 1.8 0 Calma 4 Sudoeste 0 -- -- 97
2019-04-02 06:00:00 2.4 2 Sur 6 Sur 0 -- -- 96
2019-04-02 05:00:00 2.3 0 Calma 4 Sudoeste 0 -- -- 97
2019-04-02 04:00:00 2.5 0 Calma 5 Sur 0 -- -- 95
2019-04-02 03:00:00 3.2 0 Calma 5 Sur 0 -- -- 94
2019-04-02 02:00:00 3.8 0 Calma 4 Sudoeste 0 -- -- 94
2019-04-02 01:00:00 4.2 2 Sudoeste 3 Sudoeste 0 -- -- 91
2019-04-02 00:00:00 5.1 2 Sur 4 Sur 0 -- -- 88
2019-04-01 23:00:00 6.4 2 Sudoeste 4 Sudoeste 0 -- -- 83
2019-04-01 22:00:00 8.2 3 Sur 7 Oeste 0 -- -- 78
2019-04-01 21:00:00 10.9 2 Noroeste 13 Noroeste 0 -- -- 67
2019-04-01 20:00:00 12.4 5 Noroeste 17 Norte 0 -- -- 61
2019-04-01 19:00:00 13.7 11 Norte 23 Norte 0 -- -- 58
2019-04-01 18:00:00 16 12 Norte 25 Norte 0 -- -- 49
2019-04-01 17:00:00 16.8 10 Norte 22 Norte 0 -- -- 43
2019-04-01 16:00:00 16.4 10 Norte 22 Norte 0 -- -- 45
2019-04-01 15:00:00 16.4 11 Norte 21 Norte 0 -- -- 49
2019-04-01 14:00:00 15.9 9 Norte 23 Norte 0 -- -- 43
2019-04-01 13:00:00 14.9 11 Norte 21 Norte 0 -- -- 39
2019-04-01 12:00:00 11.7 8 Nordeste 15 Nordeste 0 -- -- 51
2019-04-01 11:00:00 2.4 0 Calma 3 Sur 0 -- -- 100
2019-04-01 10:00:00 1.9 2 Sur 3 Sur 0 -- -- 100
2019-04-01 09:00:00 1.3 0 Calma 4 Sur 0 -- -- 99
2019-04-01 08:00:00 1.6 0 Calma 4 Sur 0 -- -- 99
2019-04-01 07:00:00 2.3 3 Sur 4 Sur 0 -- -- 98
2019-04-01 06:00:00 2.6 0 Calma 3 Sudoeste 0 -- -- 97
2019-04-01 05:00:00 3.7 2 Sur 5 Sudoeste 0 -- -- 96
2019-04-01 04:00:00 4.8 2 Sudeste 5 Sur 0 -- -- 96
2019-04-01 03:00:00 5 0 Calma 4 Sur 0 -- -- 96
2019-04-01 02:00:00 5.8 0 Calma 4 Sudoeste 0 -- -- 94
2019-04-01 01:00:00 6.3 0 Calma 4 Sur 0 -- -- 94
2019-04-01 00:00:00 6.6 0 Calma 3 Sur 0 -- -- 93
2019-03-31 23:00:00 6.7 0 Calma 3 Sudeste 0 -- -- 92
2019-03-31 22:00:00 7.2 0 Calma 4 Sur 0 -- -- 87
2019-03-31 21:00:00 9.8 2 Sudoeste 4 Sudoeste 0 -- -- 79
2019-03-31 20:00:00 13 0 Calma 4 Sudoeste 0 -- -- 74
2019-03-31 19:00:00 12.6 3 Norte 8 Norte 0 -- -- 71
2019-03-31 18:00:00 12.7 5 Nordeste 34 Norte 0 -- -- 67
2019-03-31 17:00:00 13.7 8 Noroeste 21 Oeste 0.6 -- -- 62
2019-03-31 16:00:00 16 11 Norte 22 Norte 0 -- -- 54
2019-03-31 15:00:00 16.5 5 Norte 19 Noroeste 0 -- -- 53
2019-03-31 14:00:00 15.5 6 Norte 19 Norte 0 -- -- 52
2019-03-31 13:00:00 16.2 9 Nordeste 19 Norte 0 -- -- 40
2019-03-31 12:00:00 14 5 Norte 12 Noroeste 0 -- -- 57
2019-03-31 11:00:00 6 2 Norte 4 Norte 0 -- -- 89
2019-03-31 10:00:00 3.7 2 Sur 6 Sur 0 -- -- 94
2019-03-31 09:00:00 2.9 2 Sur 6 Sur 0 -- -- 95
2019-03-31 08:00:00 2.7 3 Sur 8 Sur 0 -- -- 96
2019-03-31 07:00:00 3 3 Sur 5 Sudoeste 0 -- -- 96
2019-03-31 06:00:00 3.5 2 Sur 5 Sur 0 -- -- 95
2019-03-31 05:00:00 4.3 3 Sur 4 Sur 0 -- -- 93
2019-03-31 03:00:00 6.6 0 Calma 4 Sur 0 -- -- 94
2019-03-31 01:00:00 7.1 0 Calma 4 Sur 0.2 -- -- 93
2019-03-31 00:00:00 6.9 0 Calma 4 Sur 0 -- -- 89
2019-03-30 23:00:00 6.9 3 Sur 4 Sur 0 -- -- 89
2019-03-30 22:00:00 7.6 0 Calma 4 Sur 0 -- -- 86
2019-03-30 21:00:00 8.7 0 Calma 12 Norte 0 -- -- 82
2019-03-30 20:00:00 10.5 0 Calma 5 Norte 0 -- -- 81
2019-03-30 19:00:00 11.6 3 Norte 10 Noroeste 0 -- -- 81
2019-03-30 18:00:00 11.9 4 Norte 10 Noroeste 0 -- -- 76
2019-03-30 17:00:00 13.2 6 Noroeste 17 Noroeste 0 -- -- 68
2019-03-30 16:00:00 15.3 9 Norte 17 Norte 0 -- -- 57
2019-03-30 15:00:00 14.5 11 Norte 32 Nordeste 0 -- -- 54
2019-03-30 14:00:00 16.6 3 Norte 9 Norte 0 -- -- 51
2019-03-30 13:00:00 17.1 3 Sur 15 Sudoeste 0 -- -- 41
2019-03-30 12:00:00 15.5 8 Sur 27 Sur 0 -- -- 48
2019-03-30 11:00:00 14.5 16 Sur 33 Sur 0 -- -- 54
2019-03-30 10:00:00 12.6 11 Sur 23 Sudeste 0 -- -- 57
2019-03-30 09:00:00 6.1 2 Sur 4 Sudoeste 0 -- -- 95
2019-03-30 08:00:00 4.4 3 Sur 4 Sur 0 -- -- 95
2019-03-30 07:00:00 4.5 2 Sur 5 Sudoeste 0 -- -- 93
2019-03-30 06:00:00 4.6 3 Sur 4 Sur 0 -- -- 93
2019-03-30 05:00:00 4.4 2 Sur 4 Sur 0 -- -- 93
2019-03-30 04:00:00 4 3 Sur 4 Sur 0 -- -- 92
2019-03-30 03:00:00 4.4 3 Sur 5 Sur 0 -- -- 92
2019-03-30 02:00:00 4.9 3 Sur 4 Sur 0 -- -- 91
2019-03-30 01:00:00 5.9 2 Sur 5 Sur 0 -- -- 88
2019-03-30 00:00:00 7.2 2 Sur 4 Sur 0 -- -- 87
2019-03-29 23:00:00 7.7 2 Sur 4 Sudoeste 0 -- -- 86
2019-03-29 22:00:00 7.7 0 Calma 4 Sudoeste 0 -- -- 85
2019-03-29 21:00:00 9.1 2 Sudoeste 5 Sudoeste 0 -- -- 80
2019-03-29 20:00:00 11.3 4 Sur 8 Noroeste 0 -- -- 74
2019-03-29 19:00:00 13.6 5 Norte 12 Norte 0 -- -- 66
2019-03-29 18:00:00 14.9 8 Norte 19 Norte 0 -- -- 59
2019-03-29 17:00:00 17.6 12 Norte 23 Norte 0 -- -- 52
2019-03-29 16:00:00 17.6 12 Norte 23 Norte 0 -- -- 52
2019-03-29 15:00:00 18.3 15 Norte 26 Norte 0 -- -- 48
2019-03-29 14:00:00 18.4 13 Norte 25 Norte 0 -- -- 44
2019-03-29 13:00:00 17.7 12 Norte 22 Norte 0 -- -- 41
2019-03-29 12:00:00 15.9 14 Nordeste 24 Nordeste 0 -- -- 36
2019-03-29 11:00:00 10.1 3 Norte 4 Norte 0 -- -- 62
2019-03-29 10:00:00 1.5 0 Calma 6 Sur 0 -- -- 98
2019-03-29 09:00:00 1 0 Calma 4 Sudoeste 0 -- -- 97
2019-03-29 08:00:00 0.9 3 Sur 8 Sur 0 -- -- 99
2019-03-29 07:00:00 0.2 2 Sur 4 Sudoeste 0 -- -- 100
2019-03-29 06:00:00 0.3 3 Sur 5 Sudoeste 0 -- -- 100
2019-03-29 05:00:00 0.5 0 Calma 4 Sudoeste 0 -- -- 99
2019-03-29 04:00:00 1 0 Calma 3 Sur 0 -- -- 98
2019-03-29 03:00:00 1.5 0 Calma 3 Sudoeste 0 -- -- 98
2019-03-29 02:00:00 2.1 0 Calma 3 Sur 0 -- -- 97
2019-03-29 01:00:00 2.7 0 Calma 4 Sur 0 -- -- 95
2019-03-29 00:00:00 3.5 0 Calma 4 Sur 0 -- -- 94
2019-03-28 23:00:00 4.6 2 Sur 3 Sur 0 -- -- 92
2019-03-28 22:00:00 5.9 0 Calma 3 Sur 0 -- -- 87
2019-03-28 21:00:00 8 0 Calma 12 Sudoeste 0 -- -- 81
2019-03-28 20:00:00 10.3 3 Sur 17 Norte 0 -- -- 76
2019-03-28 19:00:00 12 5 Norte 24 Norte 0 -- -- 71
2019-03-28 18:00:00 12.9 11 Norte 24 Norte 0 -- -- 68
2019-03-28 17:00:00 15.9 12 Norte 23 Norte 0 -- -- 60
2019-03-28 16:00:00 16.9 12 Norte 22 Norte 0 -- -- 55
2019-03-28 15:00:00 16.7 13 Norte 25 Norte 0 -- -- 51
2019-03-28 14:00:00 16.2 14 Norte 31 Norte 0 -- -- 57
2019-03-28 13:00:00 16 14 Norte 27 Norte 0 -- -- 46
2019-03-28 12:00:00 14.2 4 Sudeste 15 Noroeste 0 -- -- 46
2019-03-28 11:00:00 8.9 3 Nordeste 8 Sudeste 0 -- -- 70
2019-03-28 10:00:00 1.2 2 Nordeste 6 Nordeste 0 -- -- 97
2019-03-28 09:00:00 0.9 2 Sudeste 6 Sur 0 -- -- 95
2019-03-28 08:00:00 1.5 0 Calma 6 Sur 0 -- -- 95
2019-03-28 07:00:00 2.3 4 Sur 9 Sudeste 0 -- -- 93
2019-03-28 06:00:00 3 3 Sur 9 Sur 0 -- -- 94
2019-03-28 05:00:00 2.5 0 Calma 3 Sur 0 -- -- 96
2019-03-28 04:00:00 2.1 0 Calma 4 Sur 0 -- -- 94
2019-03-28 03:00:00 3.4 0 Calma 9 Sur 0 -- -- 90
2019-03-28 02:00:00 3.8 0 Calma 2 Sur 0 -- -- 95
2019-03-28 01:00:00 3 0 Calma 4 Nordeste 0 -- -- 97
2019-03-28 00:00:00 2.4 2 Sur 4 Sudeste 0 -- -- 95
2019-03-27 23:00:00 3.6 0 Calma 3 Sudoeste 0 -- -- 92
2019-03-27 22:00:00 5 0 Calma 4 Oeste 0 -- -- 88
2019-03-27 21:00:00 7 3 Sur 14 Noroeste 0 -- -- 82
2019-03-27 20:00:00 9.3 4 Noroeste 17 Noroeste 0 -- -- 77
2019-03-27 19:00:00 10.8 7 Norte 26 Norte 0 -- -- 72
2019-03-27 18:00:00 12.3 9 Norte 27 Norte 0 -- -- 65
2019-03-27 17:00:00 15.6 11 Norte 26 Norte 0 -- -- 58
2019-03-27 16:00:00 16.1 12 Norte 26 Norte 0 -- -- 57
2019-03-27 15:00:00 16.4 11 Norte 25 Norte 0 -- -- 51
2019-03-27 14:00:00 15.9 12 Norte 29 Norte 0 -- -- 49
2019-03-27 13:00:00 14.8 10 Norte 21 Noroeste 0 -- -- 50
2019-03-27 12:00:00 12.3 7 Norte 18 Norte 0 -- -- 56
2019-03-27 11:00:00 7.2 2 Este 4 Sudeste 0 -- -- 75
2019-03-27 10:00:00 -0.6 0 Calma 3 Sudeste 0 -- -- 100
2019-03-27 09:00:00 -1 2 Sur 5 Sudoeste 0 -- -- 100
2019-03-27 08:00:00 -1.1 3 Sur 4 Sur 0 -- -- 100
2019-03-27 07:00:00 -1.2 0 Calma 3 Sudoeste 0 -- -- 100
2019-03-27 06:00:00 -1.1 2 Sudeste 5 Norte 0 -- -- 100
2019-03-27 05:00:00 -0.9 0 Calma 4 Sudoeste 0 -- -- 99
2019-03-27 04:00:00 -0.5 0 Calma 3 Sudoeste 0 -- -- 98
2019-03-27 03:00:00 0 0 Calma 4 Sudoeste 0 -- -- 98
2019-03-27 02:00:00 0.5 0 Calma 4 Sur 0 -- -- 97
2019-03-27 01:00:00 1 0 Calma 4 Sudoeste 0 -- -- 95
2019-03-27 00:00:00 1.7 3 Sur 4 Sur 0 -- -- 94
2019-03-26 23:00:00 2.6 0 Calma 3 Sudoeste 0 -- -- 90
2019-03-26 22:00:00 4 0 Calma 3 Sudoeste 0 -- -- 86
2019-03-26 21:00:00 5.6 3 Sur 6 Sur 0 -- -- 80
2019-03-26 20:00:00 7.9 3 Nordeste 17 Nordeste 0 -- -- 73
2019-03-26 19:00:00 9.5 6 Norte 22 Norte 0 -- -- 68
2019-03-26 18:00:00 10.8 10 Norte 24 Norte 0 -- -- 65
2019-03-26 17:00:00 14.2 10 Norte 21 Nordeste 0 -- -- 59
2019-03-26 16:00:00 15.1 11 Norte 21 Norte 0 -- -- 55
2019-03-26 15:00:00 14.8 10 Norte 24 Norte 0 -- -- 50
2019-03-26 14:00:00 14.3 11 Norte 23 Norte 0 -- -- 57
2019-03-26 13:00:00 12.9 8 Norte 17 Noroeste 0 -- -- 60
2019-03-26 12:00:00 10.6 7 Norte 16 Norte 0 -- -- 66
2019-03-26 11:00:00 6.9 2 Sudeste 5 Nordeste 0 -- -- 75
2019-03-26 10:00:00 -0.3 0 Calma 2 Sudoeste 0 -- -- 100
2019-03-26 09:00:00 -0.8 0 Calma 4 Sur 0 -- -- 99
2019-03-26 08:00:00 -1 0 Calma 4 Sudeste 0 -- -- 98
2019-03-26 07:00:00 -0.6 3 Sur 4 Sur 0 -- -- 98
2019-03-26 06:00:00 0 2 Sudoeste 5 Oeste 0 -- -- 97
2019-03-26 05:00:00 0.4 0 Calma 4 Sudeste 0 -- -- 97
2019-03-26 04:00:00 0.9 0 Calma 5 Oeste 0 -- -- 96
2019-03-26 03:00:00 1.4 2 Sudoeste 4 Sudoeste 0 -- -- 96
2019-03-26 02:00:00 2.1 2 Nordeste 7 Sur 0 -- -- 95
2019-03-26 01:00:00 2.7 0 Calma 8 Sudoeste 0 -- -- 93
2019-03-26 00:00:00 3.2 4 Sur 8 Sudeste 0 -- -- 91
2019-03-25 23:00:00 4.5 0 Calma 6 Sudoeste 0 -- -- 87
2019-03-25 22:00:00 6.6 3 Sur 19 Nordeste 0 -- -- 80
2019-03-25 21:00:00 7.8 5 Norte 18 Norte 0 -- -- 80
2019-03-25 20:00:00 9.4 10 Nordeste 22 Nordeste 0 -- -- 74
2019-03-25 19:00:00 10 9 Norte 21 Norte 0 -- -- 73
2019-03-25 18:00:00 11.1 9 Norte 26 Norte 0 -- -- 72
2019-03-25 17:00:00 13.2 12 Norte 26 Norte 0 -- -- 65
2019-03-25 16:00:00 15 12 Norte 29 Norte 0 -- -- 62
2019-03-25 15:00:00 15.3 14 Norte 27 Norte 0 -- -- 56
2019-03-25 14:00:00 15.1 14 Norte 28 Norte 0 -- -- 55
2019-03-25 13:00:00 13.9 8 Norte 15 Norte 0 -- -- 52
2019-03-25 12:00:00 11.6 5 Norte 12 Norte 0 -- -- 63
2019-03-25 11:00:00 8.6 5 Sur 9 Sur 0 -- -- 75
2019-03-25 10:00:00 6.4 5 Sur 12 Sur 0 -- -- 83
2019-03-25 09:00:00 5.2 3 Sur 8 Sur 0 -- -- 87
2019-03-25 08:00:00 5 3 Sur 13 Sur 0 -- -- 87
2019-03-25 07:00:00 4.7 5 Sur 8 Sur 0 -- -- 91
2019-03-25 06:00:00 4.2 0 Calma 10 Sur 0 -- -- 95
2019-03-25 05:00:00 3 0 Calma 3 Sudeste 0 -- -- 99
2019-03-25 04:00:00 1.8 0 Calma 5 Sur 0 -- -- 98
2019-03-25 03:00:00 2.2 0 Calma 4 Sur 0 -- -- 97
2019-03-25 02:00:00 2.7 0 Calma 4 Sur 0 -- -- 96
2019-03-25 01:00:00 3.5 0 Calma 4 Sudoeste 0 -- -- 93
2019-03-25 00:00:00 4.5 0 Calma 4 Sur 0 -- -- 90